Time,TemperatureF,DewpointF,PressureIn,WindDirection,WindDirectionDegrees,WindSpeedMPH,WindSpeedGustMPH,Humidity,HourlyPrecipIn,Conditions,Clouds,dailyrainin,SoftwareType,DateUTC
2013-07-17 00:04:00,76.1,71.0,30.59,North,0,0.0,0.0,84,0.00,,,0.00,WUHU216HW,2013-07-17 05:04:00,
2013-07-17 00:09:00,76.0,70.8,30.59,North,0,0.0,0.0,84,0.00,,,0.00,WUHU216HW,2013-07-17 05:09:00,
2013-07-17 00:14:00,76.1,71.3,30.59,North,0,0.0,0.0,85,0.00,,,0.00,WUHU216HW,2013-07-17 05:14:00,
2013-07-17 00:19:00,76.1,71.0,30.59,North,0,0.0,0.0,84,0.00,,,0.00,WUHU216HW,2013-07-17 05:19:00,
2013-07-17 00:24:00,76.1,71.0,30.59,North,0,0.0,0.0,84,0.00,,,0.00,WUHU216HW,2013-07-17 05:24:00,
2013-07-17 00:29:00,76.0,70.8,30.59,North,0,0.0,0.0,84,0.00,,,0.00,WUHU216HW,2013-07-17 05:29:00,
2013-07-17 00:34:00,75.8,71.0,30.59,North,0,0.0,0.0,85,0.00,,,0.00,WUHU216HW,2013-07-17 05:34:00,
2013-07-17 00:39:00,75.8,71.0,30.59,North,0,0.0,0.0,85,0.00,,,0.00,WUHU216HW,2013-07-17 05:39:00,
2013-07-17 00:44:00,75.6,70.8,30.59,North,0,0.0,0.0,85,0.00,,,0.00,WUHU216HW,2013-07-17 05:44:00,
2013-07-17 00:49:00,75.4,70.7,30.59,North,0,0.0,0.0,85,0.00,,,0.00,WUHU216HW,2013-07-17 05:49:00,
2013-07-17 00:54:00,75.4,70.7,30.59,North,0,0.0,0.0,85,0.00,,,0.00,WUHU216HW,2013-07-17 05:54:00,
2013-07-17 00:59:00,75.2,70.5,30.59,North,0,0.0,0.0,85,0.00,,,0.00,WUHU216HW,2013-07-17 05:59:00,
2013-07-17 01:04:00,75.2,70.5,30.60,North,0,0.0,0.0,85,0.00,,,0.00,WUHU216HW,2013-07-17 06:04:00,
2013-07-17 01:09:00,75.2,70.5,30.59,North,0,0.0,0.0,85,0.00,,,0.00,WUHU216HW,2013-07-17 06:09:00,
2013-07-17 01:14:00,75.2,70.5,30.59,North,0,0.0,0.0,85,0.00,,,0.00,WUHU216HW,2013-07-17 06:14:00,
2013-07-17 01:19:00,75.1,70.3,30.59,North,0,0.0,0.0,85,0.00,,,0.00,WUHU216HW,2013-07-17 06:19:00,
2013-07-17 01:24:00,75.1,70.3,30.59,North,0,0.0,0.0,85,0.00,,,0.00,WUHU216HW,2013-07-17 06:24:00,
2013-07-17 01:29:00,74.9,70.5,30.59,North,0,0.0,0.0,86,0.00,,,0.00,WUHU216HW,2013-07-17 06:29:00,
2013-07-17 01:34:00,75.1,70.7,30.59,North,0,0.0,0.0,86,0.00,,,0.00,WUHU216HW,2013-07-17 06:34:00,
2013-07-17 01:39:00,75.1,70.7,30.59,North,0,0.0,0.0,86,0.00,,,0.00,WUHU216HW,2013-07-17 06:39:00,
2013-07-17 01:44:00,75.2,70.8,30.59,North,0,0.0,0.0,86,0.00,,,0.00,WUHU216HW,2013-07-17 06:44:00,
2013-07-17 01:49:00,75.2,70.5,30.59,North,0,0.0,0.0,85,0.00,,,0.00,WUHU216HW,2013-07-17 06:49:00,
2013-07-17 01:54:00,75.2,70.8,30.59,North,0,0.0,0.0,86,0.00,,,0.00,WUHU216HW,2013-07-17 06:54:00,
2013-07-17 01:59:00,75.4,71.0,30.59,North,0,0.0,0.0,86,0.00,,,0.00,WUHU216HW,2013-07-17 06:59:00,
2013-07-17 02:04:00,75.8,71.0,30.59,North,0,0.0,0.0,85,0.00,,,0.00,WUHU216HW,2013-07-17 07:04:00,
2013-07-17 02:09:00,76.0,71.5,30.59,North,0,0.0,0.0,86,0.00,,,0.00,WUHU216HW,2013-07-17 07:09:00,
2013-07-17 02:14:00,76.0,71.5,30.59,North,0,0.0,0.0,86,0.00,,,0.00,WUHU216HW,2013-07-17 07:14:00,
2013-07-17 02:19:00,76.3,71.5,30.59,North,0,0.0,0.0,85,0.00,,,0.00,WUHU216HW,2013-07-17 07:19:00,
2013-07-17 02:24:00,76.3,71.5,30.59,North,0,0.0,0.0,85,0.00,,,0.00,WUHU216HW,2013-07-17 07:24:00,
2013-07-17 02:29:00,76.3,71.5,30.59,North,0,0.0,0.0,85,0.00,,,0.00,WUHU216HW,2013-07-17 07:29:00,
2013-07-17 02:34:00,76.3,71.1,30.59,North,0,0.0,0.0,84,0.00,,,0.00,WUHU216HW,2013-07-17 07:34:00,
2013-07-17 02:39:00,76.3,71.1,30.59,North,0,0.0,0.0,84,0.00,,,0.00,WUHU216HW,2013-07-17 07:39:00,
2013-07-17 02:44:00,76.3,71.1,30.59,North,0,0.0,0.0,84,0.00,,,0.00,WUHU216HW,2013-07-17 07:44:00,
2013-07-17 02:49:00,76.1,71.0,30.59,North,0,0.0,0.0,84,0.00,,,0.00,WUHU216HW,2013-07-17 07:49:00,
2013-07-17 02:54:00,76.1,71.0,30.59,North,0,0.0,0.0,84,0.00,,,0.00,WUHU216HW,2013-07-17 07:54:00,
2013-07-17 02:59:00,76.0,71.2,30.59,North,0,0.0,0.0,85,0.00,,,0.00,WUHU216HW,2013-07-17 07:59:00,
2013-07-17 03:04:00,76.0,71.2,30.59,North,0,0.0,0.0,85,0.00,,,0.00,WUHU216HW,2013-07-17 08:04:00,
2013-07-17 03:09:00,76.0,71.2,30.59,North,0,0.0,0.0,85,0.00,,,0.00,WUHU216HW,2013-07-17 08:09:00,
2013-07-17 03:14:00,75.8,71.0,30.59,North,0,0.0,0.0,85,0.00,,,0.00,WUHU216HW,2013-07-17 08:14:00,
2013-07-17 03:19:00,75.8,71.0,30.59,North,0,0.0,0.0,85,0.00,,,0.00,WUHU216HW,2013-07-17 08:19:00,
2013-07-17 03:24:00,75.6,70.8,30.59,North,0,0.0,0.0,85,0.00,,,0.00,WUHU216HW,2013-07-17 08:24:00,
2013-07-17 03:29:00,75.6,70.8,30.59,North,0,0.0,0.0,85,0.00,,,0.00,WUHU216HW,2013-07-17 08:29:00,
2013-07-17 03:34:00,75.6,71.2,30.59,North,0,0.0,0.0,86,0.00,,,0.00,WUHU216HW,2013-07-17 08:34:00,
2013-07-17 03:39:00,75.6,71.2,30.59,North,0,0.0,0.0,86,0.00,,,0.00,WUHU216HW,2013-07-17 08:39:00,
2013-07-17 03:44:00,75.6,70.8,30.59,North,0,0.0,0.0,85,0.00,,,0.00,WUHU216HW,2013-07-17 08:44:00,
2013-07-17 03:49:00,75.6,70.8,30.59,North,0,0.0,0.0,85,0.00,,,0.00,WUHU216HW,2013-07-17 08:49:00,
2013-07-17 03:54:00,75.4,70.7,30.59,North,0,0.0,0.0,85,0.00,,,0.00,WUHU216HW,2013-07-17 08:54:00,
2013-07-17 03:59:00,75.2,70.5,30.59,North,0,0.0,0.0,85,0.00,,,0.00,WUHU216HW,2013-07-17 08:59:00,
2013-07-17 04:04:00,75.1,70.3,30.59,North,0,0.0,0.0,85,0.00,,,0.00,WUHU216HW,2013-07-17 09:04:00,
2013-07-17 04:09:00,74.9,70.1,30.59,North,0,0.0,0.0,85,0.00,,,0.00,WUHU216HW,2013-07-17 09:09:00,
2013-07-17 04:14:00,74.7,70.3,30.59,North,0,0.0,0.0,86,0.00,,,0.00,WUHU216HW,2013-07-17 09:14:00,
2013-07-17 04:19:00,74.5,70.1,30.59,North,0,0.0,0.0,86,0.00,,,0.00,WUHU216HW,2013-07-17 09:19:00,
2013-07-17 04:24:00,74.5,70.5,30.59,North,0,0.0,0.0,87,0.00,,,0.00,WUHU216HW,2013-07-17 09:24:00,
2013-07-17 04:29:00,74.5,70.5,30.59,North,0,0.0,0.0,87,0.00,,,0.00,WUHU216HW,2013-07-17 09:29:00,
2013-07-17 04:34:00,74.3,70.3,30.59,North,0,0.0,0.0,87,0.00,,,0.00,WUHU216HW,2013-07-17 09:34:00,
2013-07-17 04:39:00,74.2,70.1,30.60,North,0,0.0,0.0,87,0.00,,,0.00,WUHU216HW,2013-07-17 09:39:00,
2013-07-17 04:44:00,74.2,70.1,30.60,North,0,0.0,0.0,87,0.00,,,0.00,WUHU216HW,2013-07-17 09:44:00,
2013-07-17 04:49:00,74.0,69.9,30.60,North,0,0.0,0.0,87,0.00,,,0.00,WUHU216HW,2013-07-17 09:49:00,
2013-07-17 04:54:00,73.8,69.8,30.60,North,0,0.0,0.0,87,0.00,,,0.00,WUHU216HW,2013-07-17 09:54:00,
2013-07-17 04:59:00,73.8,69.8,30.60,North,0,0.0,0.0,87,0.00,,,0.00,WUHU216HW,2013-07-17 09:59:00,
2013-07-17 05:04:00,73.8,70.0,30.60,North,0,0.0,0.0,88,0.00,,,0.00,WUHU216HW,2013-07-17 10:04:00,
2013-07-17 05:09:00,73.6,69.8,30.60,North,0,0.0,0.0,88,0.00,,,0.00,WUHU216HW,2013-07-17 10:09:00,
2013-07-17 05:14:00,73.6,69.8,30.60,North,0,0.0,0.0,88,0.00,,,0.00,WUHU216HW,2013-07-17 10:14:00,
2013-07-17 05:19:00,73.6,69.8,30.60,North,0,0.0,0.0,88,0.00,,,0.00,WUHU216HW,2013-07-17 10:19:00,
2013-07-17 05:24:00,73.6,69.8,30.60,North,0,0.0,0.0,88,0.00,,,0.00,WUHU216HW,2013-07-17 10:24:00,
2013-07-17 05:29:00,73.4,69.7,30.60,North,0,0.0,0.0,88,0.00,,,0.00,WUHU216HW,2013-07-17 10:29:00,
2013-07-17 05:34:00,73.4,69.7,30.60,North,0,0.0,0.0,88,0.00,,,0.00,WUHU216HW,2013-07-17 10:34:00,
2013-07-17 05:39:00,73.4,70.0,30.60,North,0,0.0,0.0,89,0.00,,,0.00,WUHU216HW,2013-07-17 10:39:00,
2013-07-17 05:44:00,73.4,70.0,30.60,North,0,0.0,0.0,89,0.00,,,0.00,WUHU216HW,2013-07-17 10:44:00,
2013-07-17 05:49:00,73.3,69.8,30.61,North,0,0.0,0.0,89,0.00,,,0.00,WUHU216HW,2013-07-17 10:49:00,
2013-07-17 05:54:00,73.3,69.8,30.61,North,0,0.0,0.0,89,0.00,,,0.00,WUHU216HW,2013-07-17 10:54:00,
2013-07-17 05:59:00,73.3,69.8,30.61,North,0,0.0,0.0,89,0.00,,,0.00,WUHU216HW,2013-07-17 10:59:00,
2013-07-17 06:04:00,73.4,70.0,30.61,North,0,0.0,0.0,89,0.00,,,0.00,WUHU216HW,2013-07-17 11:04:00,
2013-07-17 06:09:00,73.4,70.0,30.61,North,0,0.0,0.0,89,0.00,,,0.00,WUHU216HW,2013-07-17 11:09:00,
2013-07-17 06:14:00,73.8,70.4,30.61,North,0,0.0,0.0,89,0.00,,,0.00,WUHU216HW,2013-07-17 11:14:00,
2013-07-17 06:19:00,75.1,71.6,30.61,North,0,0.0,0.0,89,0.00,,,0.00,WUHU216HW,2013-07-17 11:19:00,
2013-07-17 06:24:00,76.7,72.5,30.61,North,0,0.0,0.0,87,0.00,,,0.00,WUHU216HW,2013-07-17 11:24:00,
2013-07-17 06:29:00,78.7,73.8,30.61,North,0,0.0,0.0,85,0.00,,,0.00,WUHU216HW,2013-07-17 11:29:00,
2013-07-17 06:34:00,80.6,75.0,30.61,North,0,0.0,0.0,83,0.00,,,0.00,WUHU216HW,2013-07-17 11:34:00,
2013-07-17 06:39:00,82.4,76.2,30.61,North,0,0.0,0.0,81,0.00,,,0.00,WUHU216HW,2013-07-17 11:39:00,
2013-07-17 06:44:00,84.2,75.8,30.61,North,0,0.0,0.0,76,0.00,,,0.00,WUHU216HW,2013-07-17 11:44:00,
2013-07-17 06:49:00,86.0,77.2,30.61,North,0,0.0,0.0,75,0.00,,,0.00,WUHU216HW,2013-07-17 11:49:00,
2013-07-17 06:54:00,87.8,77.7,30.61,North,0,0.0,0.0,72,0.00,,,0.00,WUHU216HW,2013-07-17 11:54:00,
2013-07-17 06:59:00,89.5,78.0,30.61,North,0,0.0,0.0,69,0.00,,,0.00,WUHU216HW,2013-07-17 11:59:00,
2013-07-17 07:04:00,90.9,78.0,30.61,North,0,0.0,0.0,66,0.00,,,0.00,WUHU216HW,2013-07-17 12:04:00,
2013-07-17 07:09:00,92.5,78.6,30.61,North,0,0.0,0.0,64,0.00,,,0.00,WUHU216HW,2013-07-17 12:09:00,
2013-07-17 07:14:00,94.0,78.0,30.61,North,0,0.0,0.0,60,0.00,,,0.00,WUHU216HW,2013-07-17 12:14:00,
2013-07-17 07:19:00,95.0,79.0,30.61,North,0,0.0,0.0,60,0.00,,,0.00,WUHU216HW,2013-07-17 12:19:00,
2013-07-17 07:24:00,96.8,80.6,30.61,North,0,0.0,0.0,60,0.00,,,0.00,WUHU216HW,2013-07-17 12:24:00,
2013-07-17 07:29:00,99.2,81.3,30.62,North,0,0.0,0.0,57,0.00,,,0.00,WUHU216HW,2013-07-17 12:29:00,
2013-07-17 07:34:00,101.0,77.7,30.62,North,0,0.0,0.0,48,0.00,,,0.00,WUHU216HW,2013-07-17 12:34:00,
2013-07-17 07:39:00,101.5,80.6,30.62,North,0,0.0,0.0,52,0.00,,,0.00,WUHU216HW,2013-07-17 12:39:00,
2013-07-17 07:44:00,102.6,81.0,30.62,North,0,0.0,0.0,51,0.00,,,0.00,WUHU216HW,2013-07-17 12:44:00,
2013-07-17 07:49:00,103.7,80.7,30.63,North,0,0.0,0.0,49,0.00,,,0.00,WUHU216HW,2013-07-17 12:49:00,
2013-07-17 07:54:00,104.4,81.5,30.63,North,0,0.0,0.0,49,0.00,,,0.00,WUHU216HW,2013-07-17 12:54:00,
2013-07-17 07:59:00,106.0,81.6,30.63,North,0,0.0,0.0,47,0.00,,,0.00,WUHU216HW,2013-07-17 12:59:00,
2013-07-17 08:04:00,106.9,81.1,30.63,North,0,0.0,0.0,45,0.00,,,0.00,WUHU216HW,2013-07-17 13:04:00,
2013-07-17 08:09:00,107.3,81.4,30.63,North,0,0.0,0.0,45,0.00,,,0.00,WUHU216HW,2013-07-17 13:09:00,
2013-07-17 08:14:00,108.7,81.9,30.63,North,0,0.0,0.0,44,0.00,,,0.00,WUHU216HW,2013-07-17 13:14:00,
2013-07-17 08:19:00,108.9,78.5,30.63,North,0,0.0,0.0,39,0.00,,,0.00,WUHU216HW,2013-07-17 13:19:00,
2013-07-17 08:24:00,108.9,81.4,30.63,North,0,0.0,0.0,43,0.00,,,0.00,WUHU216HW,2013-07-17 13:24:00,
2013-07-17 08:29:00,109.3,81.7,30.63,North,0,0.0,0.0,43,0.00,,,0.00,WUHU216HW,2013-07-17 13:29:00,
2013-07-17 08:34:00,110.2,81.1,30.63,North,0,0.0,0.0,41,0.00,,,0.00,WUHU216HW,2013-07-17 13:34:00,
2013-07-17 08:39:00,110.9,81.7,30.63,North,0,0.0,0.0,41,0.00,,,0.00,WUHU216HW,2013-07-17 13:39:00,
2013-07-17 08:44:00,110.9,78.5,30.63,North,0,0.0,0.0,37,0.00,,,0.00,WUHU216HW,2013-07-17 13:44:00,
2013-07-17 08:49:00,110.0,80.9,30.63,North,0,0.0,0.0,41,0.00,,,0.00,WUHU216HW,2013-07-17 13:49:00,
2013-07-17 08:54:00,109.4,79.7,30.63,North,0,0.0,0.0,40,0.00,,,0.00,WUHU216HW,2013-07-17 13:54:00,
2013-07-17 08:59:00,107.3,79.4,30.63,North,0,0.0,0.0,42,0.00,,,0.00,WUHU216HW,2013-07-17 13:59:00,
2013-07-17 09:04:00,107.1,79.2,30.63,North,0,0.0,0.0,42,0.00,,,0.00,WUHU216HW,2013-07-17 14:04:00,
2013-07-17 09:09:00,106.2,79.0,30.63,North,0,0.0,0.0,43,0.00,,,0.00,WUHU216HW,2013-07-17 14:09:00,
2013-07-17 09:14:00,106.2,79.0,30.63,North,0,0.0,0.0,43,0.00,,,0.00,WUHU216HW,2013-07-17 14:14:00,
2013-07-17 09:19:00,105.5,79.1,30.63,North,0,0.0,0.0,44,0.00,,,0.00,WUHU216HW,2013-07-17 14:19:00,
2013-07-17 09:24:00,104.6,78.9,30.63,North,0,0.0,0.0,45,0.00,,,0.00,WUHU216HW,2013-07-17 14:24:00,
2013-07-17 09:29:00,103.3,77.8,30.63,North,0,0.0,0.0,45,0.00,,,0.00,WUHU216HW,2013-07-17 14:29:00,
2013-07-17 09:34:00,102.8,78.0,30.62,North,0,0.0,0.0,46,0.00,,,0.00,WUHU216HW,2013-07-17 14:34:00,
2013-07-17 09:39:00,101.5,77.5,30.63,North,0,0.0,0.0,47,0.00,,,0.00,WUHU216HW,2013-07-17 14:39:00,
2013-07-17 09:44:00,101.2,77.1,30.63,North,0,0.0,0.0,47,0.00,,,0.00,WUHU216HW,2013-07-17 14:44:00,
2013-07-17 09:49:00,101.3,77.9,30.63,North,0,0.0,0.0,48,0.00,,,0.00,WUHU216HW,2013-07-17 14:49:00,
2013-07-17 09:54:00,100.8,77.5,30.62,North,0,0.0,0.0,48,0.00,,,0.00,WUHU216HW,2013-07-17 14:54:00,
2013-07-17 09:59:00,99.5,77.7,30.62,North,0,0.0,0.0,50,0.00,,,0.00,WUHU216HW,2013-07-17 14:59:00,
2013-07-17 10:04:00,99.2,77.3,30.62,North,0,0.0,0.0,50,0.00,,,0.00,WUHU216HW,2013-07-17 15:04:00,
2013-07-17 10:09:00,99.9,78.0,30.62,North,0,0.0,0.0,50,0.00,,,0.00,WUHU216HW,2013-07-17 15:09:00,
2013-07-17 10:14:00,99.4,77.5,30.62,North,0,0.0,0.0,50,0.00,,,0.00,WUHU216HW,2013-07-17 15:14:00,
2013-07-17 10:19:00,99.0,77.2,30.62,North,0,0.0,0.0,50,0.00,,,0.00,WUHU216HW,2013-07-17 15:19:00,
2013-07-17 10:24:00,99.4,77.5,30.62,North,0,0.0,0.0,50,0.00,,,0.00,WUHU216HW,2013-07-17 15:24:00,
2013-07-17 10:29:00,99.7,78.4,30.62,North,0,0.0,0.0,51,0.00,,,0.00,WUHU216HW,2013-07-17 15:29:00,
2013-07-17 10:34:00,100.1,78.1,30.62,North,0,0.0,0.0,50,0.00,,,0.00,WUHU216HW,2013-07-17 15:34:00,
2013-07-17 10:39:00,100.3,78.3,30.62,North,0,0.0,0.0,50,0.00,,,0.00,WUHU216HW,2013-07-17 15:39:00,
2013-07-17 10:44:00,100.1,76.9,30.62,North,0,0.0,0.0,48,0.00,,,0.00,WUHU216HW,2013-07-17 15:44:00,
2013-07-17 10:49:00,99.7,77.9,30.62,North,0,0.0,0.0,50,0.00,,,0.00,WUHU216HW,2013-07-17 15:49:00,
2013-07-17 10:54:00,99.9,78.0,30.62,North,0,0.0,0.0,50,0.00,,,0.00,WUHU216HW,2013-07-17 15:54:00,
2013-07-17 10:59:00,99.7,78.4,30.62,North,0,0.0,0.0,51,0.00,,,0.00,WUHU216HW,2013-07-17 15:59:00,
2013-07-17 11:04:00,99.9,78.0,30.62,North,0,0.0,0.0,50,0.00,,,0.00,WUHU216HW,2013-07-17 16:04:00,
2013-07-17 11:09:00,99.9,78.6,30.62,North,0,0.0,0.0,51,0.00,,,0.00,WUHU216HW,2013-07-17 16:09:00,
2013-07-17 11:14:00,99.4,78.0,30.62,North,0,0.0,0.0,51,0.00,,,0.00,WUHU216HW,2013-07-17 16:14:00,
2013-07-17 11:20:00,99.0,77.8,30.62,North,0,0.0,0.0,51,0.00,,,0.00,WUHU216HW,2013-07-17 16:20:00,
2013-07-17 11:25:00,100.1,78.8,30.62,North,0,0.0,0.0,51,0.00,,,0.00,WUHU216HW,2013-07-17 16:25:00,
2013-07-17 11:30:00,100.3,79.5,30.62,North,0,0.0,0.0,52,0.00,,,0.00,WUHU216HW,2013-07-17 16:30:00,
2013-07-17 11:35:00,101.2,79.1,30.62,North,0,0.0,0.0,50,0.00,,,0.00,WUHU216HW,2013-07-17 16:35:00,
2013-07-17 11:40:00,101.5,79.5,30.62,North,0,0.0,0.0,50,0.00,,,0.00,WUHU216HW,2013-07-17 16:40:00,
2013-07-17 11:45:00,101.9,79.1,30.62,North,0,0.0,0.0,49,0.00,,,0.00,WUHU216HW,2013-07-17 16:45:00,
2013-07-17 11:50:00,101.3,79.3,30.62,North,0,0.0,0.0,50,0.00,,,0.00,WUHU216HW,2013-07-17 16:50:00,
2013-07-17 11:55:00,100.8,78.9,30.61,North,0,0.0,0.0,50,0.00,,,0.00,WUHU216HW,2013-07-17 16:55:00,
2013-07-17 12:00:00,100.3,77.0,30.61,North,0,0.0,0.0,48,0.00,,,0.00,WUHU216HW,2013-07-17 17:00:00,
2013-07-17 12:05:00,99.4,78.0,30.61,North,0,0.0,0.0,51,0.00,,,0.00,WUHU216HW,2013-07-17 17:05:00,
2013-07-17 12:10:00,99.4,76.1,30.61,North,0,0.0,0.0,48,0.00,,,0.00,WUHU216HW,2013-07-17 17:10:00,
2013-07-17 12:15:00,100.4,78.5,30.61,North,0,0.0,0.0,50,0.00,,,0.00,WUHU216HW,2013-07-17 17:15:00,
2013-07-17 12:20:00,100.4,76.5,30.61,North,0,0.0,0.0,47,0.00,,,0.00,WUHU216HW,2013-07-17 17:20:00,
2013-07-17 12:25:00,100.6,76.0,30.61,North,0,0.0,0.0,46,0.00,,,0.00,WUHU216HW,2013-07-17 17:25:00,
2013-07-17 12:30:00,100.4,77.1,30.61,North,0,0.0,0.0,48,0.00,,,0.00,WUHU216HW,2013-07-17 17:30:00,
2013-07-17 12:35:00,99.4,76.1,30.61,North,0,0.0,0.0,48,0.00,,,0.00,WUHU216HW,2013-07-17 17:35:00,
2013-07-17 12:40:00,98.8,75.7,30.61,North,0,0.0,0.0,48,0.00,,,0.00,WUHU216HW,2013-07-17 17:40:00,
2013-07-17 12:45:00,98.5,76.1,30.61,North,0,0.0,0.0,49,0.00,,,0.00,WUHU216HW,2013-07-17 17:45:00,
2013-07-17 12:50:00,98.3,75.3,30.61,North,0,0.0,0.0,48,0.00,,,0.00,WUHU216HW,2013-07-17 17:50:00,
2013-07-17 12:55:00,98.1,75.7,30.60,North,0,0.0,0.0,49,0.00,,,0.00,WUHU216HW,2013-07-17 17:55:00,
2013-07-17 13:00:00,97.4,76.2,30.60,North,0,0.0,0.0,51,0.00,,,0.00,WUHU216HW,2013-07-17 18:00:00,
2013-07-17 13:05:00,97.0,75.4,30.60,North,0,0.0,0.0,50,0.00,,,0.00,WUHU216HW,2013-07-17 18:05:00,
2013-07-17 13:10:00,97.0,75.4,30.60,North,0,0.0,0.0,50,0.00,,,0.00,WUHU216HW,2013-07-17 18:10:00,
2013-07-17 13:15:00,96.8,76.3,30.60,North,0,0.0,0.0,52,0.00,,,0.00,WUHU216HW,2013-07-17 18:15:00,
2013-07-17 13:20:00,96.8,76.9,30.59,North,0,0.0,0.0,53,0.00,,,0.00,WUHU216HW,2013-07-17 18:20:00,
2013-07-17 13:25:00,96.7,76.7,30.59,North,0,0.0,0.0,53,0.00,,,0.00,WUHU216HW,2013-07-17 18:25:00,
2013-07-17 13:30:00,96.5,75.4,30.59,North,0,0.0,0.0,51,0.00,,,0.00,WUHU216HW,2013-07-17 18:30:00,
2013-07-17 13:35:00,96.5,74.9,30.59,North,0,0.0,0.0,50,0.00,,,0.00,WUHU216HW,2013-07-17 18:35:00,
2013-07-17 13:40:00,96.1,74.6,30.59,North,0,0.0,0.0,50,0.00,,,0.00,WUHU216HW,2013-07-17 18:40:00,
2013-07-17 13:45:00,95.9,74.4,30.59,North,0,0.0,0.0,50,0.00,,,0.00,WUHU216HW,2013-07-17 18:45:00,
2013-07-17 13:50:00,95.6,74.6,30.58,North,0,0.0,0.0,51,0.00,,,0.00,WUHU216HW,2013-07-17 18:50:00,
2013-07-17 13:55:00,95.6,74.6,30.58,North,0,0.0,0.0,51,0.00,,,0.00,WUHU216HW,2013-07-17 18:55:00,
2013-07-17 14:00:00,95.6,74.6,30.58,North,0,0.0,0.0,51,0.00,,,0.00,WUHU216HW,2013-07-17 19:00:00,
2013-07-17 14:05:00,95.4,75.1,30.58,North,0,0.0,0.0,52,0.00,,,0.00,WUHU216HW,2013-07-17 19:05:00,
2013-07-17 14:10:00,95.4,74.5,30.58,North,0,0.0,0.0,51,0.00,,,0.00,WUHU216HW,2013-07-17 19:10:00,
2013-07-17 14:15:00,95.4,74.5,30.58,North,0,0.0,0.0,51,0.00,,,0.00,WUHU216HW,2013-07-17 19:15:00,
2013-07-17 14:20:00,95.8,74.3,30.58,North,0,0.0,0.0,50,0.00,,,0.00,WUHU216HW,2013-07-17 19:20:00,
2013-07-17 14:25:00,95.6,75.2,30.57,North,0,0.0,0.0,52,0.00,,,0.00,WUHU216HW,2013-07-17 19:25:00,
2013-07-17 14:30:00,95.4,74.0,30.58,North,0,0.0,0.0,50,0.00,,,0.00,WUHU216HW,2013-07-17 19:30:00,
2013-07-17 14:35:00,94.7,74.3,30.57,North,0,0.0,0.0,52,0.00,,,0.00,WUHU216HW,2013-07-17 19:35:00,
2013-07-17 14:40:00,94.3,75.1,30.57,North,0,0.0,0.0,54,0.00,,,0.00,WUHU216HW,2013-07-17 19:40:00,
2013-07-17 14:45:00,94.0,75.3,30.57,North,0,0.0,0.0,55,0.00,,,0.00,WUHU216HW,2013-07-17 19:45:00,
2013-07-17 14:50:00,94.0,74.7,30.57,North,0,0.0,0.0,54,0.00,,,0.00,WUHU216HW,2013-07-17 19:50:00,
2013-07-17 14:55:00,94.0,75.9,30.56,North,0,0.0,0.0,56,0.00,,,0.00,WUHU216HW,2013-07-17 19:55:00,
2013-07-17 15:00:00,94.0,74.7,30.56,North,0,0.0,0.0,54,0.00,,,0.00,WUHU216HW,2013-07-17 20:00:00,
2013-07-17 15:05:00,94.0,74.2,30.56,North,0,0.0,0.0,53,0.00,,,0.00,WUHU216HW,2013-07-17 20:05:00,
2013-07-17 15:10:00,94.0,74.7,30.56,North,0,0.0,0.0,54,0.00,,,0.00,WUHU216HW,2013-07-17 20:10:00,
2013-07-17 15:15:00,93.8,74.6,30.56,North,0,0.0,0.0,54,0.00,,,0.00,WUHU216HW,2013-07-17 20:15:00,
2013-07-17 15:20:00,93.6,74.4,30.56,North,0,0.0,0.0,54,0.00,,,0.00,WUHU216HW,2013-07-17 20:20:00,
2013-07-17 15:25:00,93.2,74.1,30.56,North,0,0.0,0.0,54,0.00,,,0.00,WUHU216HW,2013-07-17 20:25:00,
2013-07-17 15:26:00,93.4,74.3,30.56,North,0,0.0,0.0,54,0.00,,,0.00,WUHU216HW,2013-07-17 20:26:00,
2013-07-17 15:30:00,93.4,74.8,30.56,North,0,0.0,0.0,55,0.00,,,0.00,WUHU216HW,2013-07-17 20:30:00,
2013-07-17 15:35:00,93.4,74.8,30.56,North,0,0.0,0.0,55,0.00,,,0.00,WUHU216HW,2013-07-17 20:35:00,
2013-07-17 15:40:00,93.4,74.8,30.56,North,0,0.0,0.0,55,0.00,,,0.00,WUHU216HW,2013-07-17 20:40:00,
2013-07-17 15:45:00,92.9,74.8,30.55,North,0,0.0,0.0,56,0.00,,,0.00,WUHU216HW,2013-07-17 20:45:00,
2013-07-17 15:50:00,92.5,74.5,30.55,North,0,0.0,0.0,56,0.00,,,0.00,WUHU216HW,2013-07-17 20:50:00,
2013-07-17 15:55:00,92.5,74.5,30.55,North,0,0.0,0.0,56,0.00,,,0.00,WUHU216HW,2013-07-17 20:55:00,
2013-07-17 16:00:00,92.5,74.5,30.55,North,0,0.0,0.0,56,0.00,,,0.00,WUHU216HW,2013-07-17 21:00:00,
2013-07-17 16:05:00,92.5,73.9,30.55,North,0,0.0,0.0,55,0.00,,,0.00,WUHU216HW,2013-07-17 21:05:00,
2013-07-17 16:10:00,92.7,74.1,30.54,North,0,0.0,0.0,55,0.00,,,0.00,WUHU216HW,2013-07-17 21:10:00,
2013-07-17 16:15:00,92.5,73.9,30.54,North,0,0.0,0.0,55,0.00,,,0.00,WUHU216HW,2013-07-17 21:15:00,
2013-07-17 16:20:00,92.5,74.5,30.54,North,0,0.0,0.0,56,0.00,,,0.00,WUHU216HW,2013-07-17 21:20:00,
2013-07-17 16:25:00,92.5,74.5,30.54,North,0,0.0,0.0,56,0.00,,,0.00,WUHU216HW,2013-07-17 21:25:00,
2013-07-17 16:30:00,92.5,73.9,30.54,North,0,0.0,0.0,55,0.00,,,0.00,WUHU216HW,2013-07-17 21:30:00,
2013-07-17 16:35:00,92.5,74.5,30.54,North,0,0.0,0.0,56,0.00,,,0.00,WUHU216HW,2013-07-17 21:35:00,
2013-07-17 16:40:00,92.3,74.4,30.53,North,0,0.0,0.0,56,0.00,,,0.00,WUHU216HW,2013-07-17 21:40:00,
2013-07-17 16:45:00,92.3,74.4,30.53,North,0,0.0,0.0,56,0.00,,,0.00,WUHU216HW,2013-07-17 21:45:00,
2013-07-17 16:50:00,92.2,74.2,30.53,North,0,0.0,0.0,56,0.00,,,0.00,WUHU216HW,2013-07-17 21:50:00,
2013-07-17 16:55:00,92.2,74.7,30.53,North,0,0.0,0.0,57,0.00,,,0.00,WUHU216HW,2013-07-17 21:55:00,
2013-07-17 17:00:00,92.0,74.0,30.53,North,0,0.0,0.0,56,0.00,,,0.00,WUHU216HW,2013-07-17 22:00:00,
2013-07-17 17:05:00,91.8,73.8,30.53,North,0,0.0,0.0,56,0.00,,,0.00,WUHU216HW,2013-07-17 22:05:00,
2013-07-17 17:10:00,91.8,73.8,30.53,North,0,0.0,0.0,56,0.00,,,0.00,WUHU216HW,2013-07-17 22:10:00,
2013-07-17 17:16:00,91.8,74.4,30.53,North,0,0.0,0.0,57,0.00,,,0.00,WUHU216HW,2013-07-17 22:16:00,
2013-07-17 17:21:00,91.6,74.2,30.53,North,0,0.0,0.0,57,0.00,,,0.00,WUHU216HW,2013-07-17 22:21:00,
2013-07-17 17:26:00,91.4,74.0,30.53,North,0,0.0,0.0,57,0.00,,,0.00,WUHU216HW,2013-07-17 22:26:00,
2013-07-17 17:31:00,91.4,74.0,30.52,North,0,0.0,0.0,57,0.00,,,0.00,WUHU216HW,2013-07-17 22:31:00,
2013-07-17 17:36:00,91.3,73.8,30.52,North,0,0.0,0.0,57,0.00,,,0.00,WUHU216HW,2013-07-17 22:36:00,
2013-07-17 17:41:00,91.1,73.6,30.52,North,0,0.0,0.0,57,0.00,,,0.00,WUHU216HW,2013-07-17 22:41:00,
2013-07-17 17:46:00,91.1,74.2,30.52,North,0,0.0,0.0,58,0.00,,,0.00,WUHU216HW,2013-07-17 22:46:00,
2013-07-17 17:51:00,90.9,74.6,30.52,North,0,0.0,0.0,59,0.00,,,0.00,WUHU216HW,2013-07-17 22:51:00,
2013-07-17 17:56:00,90.7,75.0,30.52,North,0,0.0,0.0,60,0.00,,,0.00,WUHU216HW,2013-07-17 22:56:00,
2013-07-17 18:01:00,90.4,74.6,30.52,North,0,0.0,0.0,60,0.00,,,0.00,WUHU216HW,2013-07-17 23:01:00,
2013-07-17 18:07:00,90.2,75.0,30.51,North,0,0.0,0.0,61,0.00,,,0.00,WUHU216HW,2013-07-17 23:07:00,
2013-07-17 18:12:00,90.0,74.8,30.51,North,0,0.0,0.0,61,0.00,,,0.00,WUHU216HW,2013-07-17 23:12:00,
2013-07-17 18:17:00,90.0,74.8,30.51,North,0,0.0,0.0,61,0.00,,,0.00,WUHU216HW,2013-07-17 23:17:00,
2013-07-17 18:22:00,89.6,74.9,30.51,North,0,0.0,0.0,62,0.00,,,0.00,WUHU216HW,2013-07-17 23:22:00,
2013-07-17 18:27:00,89.5,74.8,30.51,North,0,0.0,0.0,62,0.00,,,0.00,WUHU216HW,2013-07-17 23:27:00,
2013-07-17 18:33:00,89.3,74.6,30.51,North,0,0.0,0.0,62,0.00,,,0.00,WUHU216HW,2013-07-17 23:33:00,
2013-07-17 18:38:00,88.9,74.7,30.51,North,0,0.0,0.0,63,0.00,,,0.00,WUHU216HW,2013-07-17 23:38:00,
2013-07-17 18:43:00,88.7,74.5,30.51,North,0,0.0,0.0,63,0.00,,,0.00,WUHU216HW,2013-07-17 23:43:00,
2013-07-17 18:48:00,88.4,74.3,30.51,North,0,0.0,0.0,63,0.00,,,0.00,WUHU216HW,2013-07-17 23:48:00,
2013-07-17 18:54:00,88.2,74.1,30.51,North,0,0.0,0.0,63,0.00,,,0.00,WUHU216HW,2013-07-17 23:54:00,
2013-07-17 18:59:00,88.0,74.4,30.51,North,0,0.0,0.0,64,0.00,,,0.00,WUHU216HW,2013-07-17 23:59:00,
2013-07-17 19:04:00,87.7,74.4,30.51,North,0,0.0,0.0,65,0.00,,,0.00,WUHU216HW,2013-07-18 00:04:00,
2013-07-17 19:09:00,87.5,74.3,30.51,North,0,0.0,0.0,65,0.00,,,0.00,WUHU216HW,2013-07-18 00:09:00,
2013-07-17 19:14:00,87.1,74.3,30.51,North,0,0.0,0.0,66,0.00,,,0.00,WUHU216HW,2013-07-18 00:14:00,
2013-07-17 19:19:00,86.9,74.3,30.51,North,0,0.0,0.0,66,0.00,,,0.00,WUHU216HW,2013-07-18 00:19:00,
2013-07-17 19:24:00,86.6,73.9,30.50,North,0,0.0,0.0,66,0.00,,,0.00,WUHU216HW,2013-07-18 00:24:00,
2013-07-17 19:29:00,86.2,74.0,30.50,North,0,0.0,0.0,67,0.00,,,0.00,WUHU216HW,2013-07-18 00:29:00,
2013-07-17 19:34:00,86.0,73.8,30.50,North,0,0.0,0.0,67,0.00,,,0.00,WUHU216HW,2013-07-18 00:34:00,
2013-07-17 19:39:00,85.9,73.6,30.50,North,0,0.0,0.0,67,0.00,,,0.00,WUHU216HW,2013-07-18 00:39:00,
2013-07-17 19:44:00,85.5,73.8,30.50,North,0,0.0,0.0,68,0.00,,,0.00,WUHU216HW,2013-07-18 00:44:00,
2013-07-17 19:49:00,85.3,73.6,30.50,North,0,0.0,0.0,68,0.00,,,0.00,WUHU216HW,2013-07-18 00:49:00,
2013-07-17 19:54:00,85.0,73.7,30.50,North,0,0.0,0.0,69,0.00,,,0.00,WUHU216HW,2013-07-18 00:54:00,
2013-07-17 19:59:00,84.8,73.5,30.50,North,0,0.0,0.0,69,0.00,,,0.00,WUHU216HW,2013-07-18 00:59:00,
2013-07-17 20:04:00,84.4,73.6,30.50,North,0,0.0,0.0,70,0.00,,,0.00,WUHU216HW,2013-07-18 01:04:00,
2013-07-17 20:09:00,84.2,73.4,30.50,North,0,0.0,0.0,70,0.00,,,0.00,WUHU216HW,2013-07-18 01:09:00,
2013-07-17 20:14:00,83.9,73.4,30.50,North,0,0.0,0.0,71,0.00,,,0.00,WUHU216HW,2013-07-18 01:14:00,
2013-07-17 20:19:00,83.7,73.3,30.50,North,0,0.0,0.0,71,0.00,,,0.00,WUHU216HW,2013-07-18 01:19:00,
2013-07-17 20:24:00,83.3,73.4,30.50,North,0,0.0,0.0,72,0.00,,,0.00,WUHU216HW,2013-07-18 01:24:00,
2013-07-17 20:29:00,83.2,73.2,30.50,North,0,0.0,0.0,72,0.00,,,0.00,WUHU216HW,2013-07-18 01:29:00,
2013-07-17 20:34:00,82.8,72.8,30.50,North,0,0.0,0.0,72,0.00,,,0.00,WUHU216HW,2013-07-18 01:34:00,
2013-07-17 20:39:00,82.6,73.1,30.50,North,0,0.0,0.0,73,0.00,,,0.00,WUHU216HW,2013-07-18 01:39:00,
2013-07-17 20:44:00,82.3,73.2,30.50,North,0,0.0,0.0,74,0.00,,,0.00,WUHU216HW,2013-07-18 01:44:00,
2013-07-17 20:49:00,82.1,73.0,30.50,North,0,0.0,0.0,74,0.00,,,0.00,WUHU216HW,2013-07-18 01:49:00,
2013-07-17 20:54:00,81.7,72.6,30.50,North,0,0.0,0.0,74,0.00,,,0.00,WUHU216HW,2013-07-18 01:54:00,
2013-07-17 20:59:00,81.5,72.8,30.50,North,0,0.0,0.0,75,0.00,,,0.00,WUHU216HW,2013-07-18 01:59:00,
2013-07-17 21:04:00,81.2,72.6,30.50,North,0,0.0,0.0,75,0.00,,,0.00,WUHU216HW,2013-07-18 02:04:00,
2013-07-17 21:09:00,81.0,72.4,30.50,North,0,0.0,0.0,75,0.00,,,0.00,WUHU216HW,2013-07-18 02:09:00,
2013-07-17 21:14:00,80.8,72.2,30.50,North,0,0.0,0.0,75,0.00,,,0.00,WUHU216HW,2013-07-18 02:14:00,
2013-07-17 21:19:00,80.6,72.4,30.50,North,0,0.0,0.0,76,0.00,,,0.00,WUHU216HW,2013-07-18 02:19:00,
2013-07-17 21:24:00,80.3,72.0,30.50,North,0,0.0,0.0,76,0.00,,,0.00,WUHU216HW,2013-07-18 02:24:00,
2013-07-17 21:29:00,80.3,72.5,30.50,North,0,0.0,0.0,77,0.00,,,0.00,WUHU216HW,2013-07-18 02:29:00,
2013-07-17 21:34:00,79.9,72.1,30.50,North,0,0.0,0.0,77,0.00,,,0.00,WUHU216HW,2013-07-18 02:34:00,
2013-07-17 21:39:00,79.7,71.9,30.50,North,0,0.0,0.0,77,0.00,,,0.00,WUHU216HW,2013-07-18 02:39:00,
2013-07-17 21:44:00,79.7,71.9,30.50,North,0,0.0,0.0,77,0.00,,,0.00,WUHU216HW,2013-07-18 02:44:00,
2013-07-17 21:49:00,79.6,71.7,30.50,North,0,0.0,0.0,77,0.00,,,0.00,WUHU216HW,2013-07-18 02:49:00,
2013-07-17 21:54:00,79.6,72.1,30.51,North,0,0.0,0.0,78,0.00,,,0.00,WUHU216HW,2013-07-18 02:54:00,
2013-07-17 21:59:00,79.6,72.1,30.51,North,0,0.0,0.0,78,0.00,,,0.00,WUHU216HW,2013-07-18 02:59:00,
2013-07-17 22:04:00,79.4,71.9,30.51,North,0,0.0,0.0,78,0.00,,,0.00,WUHU216HW,2013-07-18 03:04:00,
2013-07-17 22:09:00,79.4,71.9,30.50,North,0,0.0,0.0,78,0.00,,,0.00,WUHU216HW,2013-07-18 03:09:00,
2013-07-17 22:14:00,79.2,71.7,30.51,North,0,0.0,0.0,78,0.00,,,0.00,WUHU216HW,2013-07-18 03:14:00,
2013-07-17 22:19:00,79.2,72.2,30.51,North,0,0.0,0.0,79,0.00,,,0.00,WUHU216HW,2013-07-18 03:19:00,
2013-07-17 22:24:00,79.0,72.0,30.51,North,0,0.0,0.0,79,0.00,,,0.00,WUHU216HW,2013-07-18 03:24:00,
2013-07-17 22:29:00,78.8,71.8,30.51,North,0,0.0,0.0,79,0.00,,,0.00,WUHU216HW,2013-07-18 03:29:00,
2013-07-17 22:34:00,78.7,71.2,30.51,North,0,0.0,0.0,78,0.00,,,0.00,WUHU216HW,2013-07-18 03:34:00,
2013-07-17 22:39:00,78.7,71.2,30.51,North,0,0.0,0.0,78,0.00,,,0.00,WUHU216HW,2013-07-18 03:39:00,
2013-07-17 22:44:00,78.7,71.2,30.51,North,0,0.0,0.0,78,0.00,,,0.00,WUHU216HW,2013-07-18 03:44:00,
2013-07-17 22:49:00,78.8,71.4,30.51,North,0,0.0,0.0,78,0.00,,,0.00,WUHU216HW,2013-07-18 03:49:00,
2013-07-17 22:54:00,78.7,71.2,30.51,North,0,0.0,0.0,78,0.00,,,0.00,WUHU216HW,2013-07-18 03:54:00,
2013-07-17 22:59:00,78.7,71.7,30.51,North,0,0.0,0.0,79,0.00,,,0.00,WUHU216HW,2013-07-18 03:59:00,
2013-07-17 23:01:00,78.7,71.7,30.51,North,0,0.0,0.0,79,0.00,,,0.00,WUHU216HW,2013-07-18 04:01:00,
2013-07-17 23:02:00,78.7,71.7,30.51,North,0,0.0,0.0,79,0.00,,,0.00,WUHU216HW,2013-07-18 04:02:00,
2013-07-17 23:07:00,78.5,71.5,30.51,North,0,0.0,0.0,79,0.00,,,0.00,WUHU216HW,2013-07-18 04:07:00,
2013-07-17 23:12:00,78.3,71.3,30.51,North,0,0.0,0.0,79,0.00,,,0.00,WUHU216HW,2013-07-18 04:12:00,
2013-07-17 23:17:00,78.1,71.5,30.51,North,0,0.0,0.0,80,0.00,,,0.00,WUHU216HW,2013-07-18 04:17:00,
2013-07-17 23:22:00,78.1,71.5,30.51,North,0,0.0,0.0,80,0.00,,,0.00,WUHU216HW,2013-07-18 04:22:00,
2013-07-17 23:27:00,77.8,71.5,30.51,North,0,0.0,0.0,81,0.00,,,0.00,WUHU216HW,2013-07-18 04:27:00,
2013-07-17 23:32:00,77.8,71.5,30.51,North,0,0.0,0.0,81,0.00,,,0.00,WUHU216HW,2013-07-18 04:32:00,
2013-07-17 23:37:00,77.6,71.3,30.51,North,0,0.0,0.0,81,0.00,,,0.00,WUHU216HW,2013-07-18 04:37:00,
2013-07-17 23:42:00,77.4,71.1,30.51,North,0,0.0,0.0,81,0.00,,,0.00,WUHU216HW,2013-07-18 04:42:00,
2013-07-17 23:47:00,77.4,71.5,30.51,North,0,0.0,0.0,82,0.00,,,0.00,WUHU216HW,2013-07-18 04:47:00,
2013-07-17 23:52:00,77.4,71.5,30.51,North,0,0.0,0.0,82,0.00,,,0.00,WUHU216HW,2013-07-18 04:52:00,
2013-07-17 23:57:00,77.2,71.3,30.51,North,0,0.0,0.0,82,0.00,,,0.00,WUHU216HW,2013-07-18 04:57:00,